Terminal Aerodrome Forecast
Issued by NWS Louisville, KY

Home | Current Version | Previous Version | Text Only | Print | Product List | Glossary On
Versions: 1 2 3 4 5 6 7 8 9 10 11 12 13 14
000
FTUS43 KLMK 191726
TAFSDF
TAF
KSDF 191726Z 1918/2024 20010G18KT P6SM FEW250
     FM192300 20005KT P6SM FEW250
     FM201400 22006KT P6SM BKN040
     FM201600 22007KT P6SM BKN028
     FM202000 22008KT P6SM VCSH BKN015=

USA.gov is the U.S. government's official web portal to all federal, state and local government web resources and services.